sensor_id;sensor_type;location;lat;lon;timestamp;P1;durP1;ratioP1;P2;durP2;ratioP2
14030;SDS011;7090;49.436;8.490;2023-06-04T00:01:07;7.82;;;7.53;;
14030;SDS011;7090;49.436;8.490;2023-06-04T00:03:33;7.80;;;7.50;;
14030;SDS011;7090;49.436;8.490;2023-06-04T00:05:59;7.57;;;7.28;;
14030;SDS011;7090;49.436;8.490;2023-06-04T00:08:25;8.65;;;8.35;;
14030;SDS011;7090;49.436;8.490;2023-06-04T00:10:50;8.00;;;7.70;;
14030;SDS011;7090;49.436;8.490;2023-06-04T00:13:16;9.38;;;8.68;;
14030;SDS011;7090;49.436;8.490;2023-06-04T00:15:42;7.80;;;7.50;;
14030;SDS011;7090;49.436;8.490;2023-06-04T00:18:08;7.97;;;7.68;;
14030;SDS011;7090;49.436;8.490;2023-06-04T00:20:33;8.13;;;7.82;;
14030;SDS011;7090;49.436;8.490;2023-06-04T00:22:59;8.10;;;7.80;;
14030;SDS011;7090;49.436;8.490;2023-06-04T00:25:24;7.68;;;7.38;;
14030;SDS011;7090;49.436;8.490;2023-06-04T00:27:51;7.50;;;7.20;;
14030;SDS011;7090;49.436;8.490;2023-06-04T00:30:16;8.00;;;7.70;;
14030;SDS011;7090;49.436;8.490;2023-06-04T00:32:42;7.90;;;7.60;;
14030;SDS011;7090;49.436;8.490;2023-06-04T00:35:08;7.90;;;7.60;;
14030;SDS011;7090;49.436;8.490;2023-06-04T00:37:34;7.90;;;7.60;;
14030;SDS011;7090;49.436;8.490;2023-06-04T00:40:00;7.70;;;7.40;;
14030;SDS011;7090;49.436;8.490;2023-06-04T00:42:26;7.90;;;7.60;;
14030;SDS011;7090;49.436;8.490;2023-06-04T00:44:51;7.90;;;7.60;;
14030;SDS011;7090;49.436;8.490;2023-06-04T00:47:17;7.63;;;7.32;;
14030;SDS011;7090;49.436;8.490;2023-06-04T00:49:45;8.30;;;8.00;;
14030;SDS011;7090;49.436;8.490;2023-06-04T00:52:12;8.00;;;7.70;;
14030;SDS011;7090;49.436;8.490;2023-06-04T00:54:40;7.78;;;7.47;;
14030;SDS011;7090;49.436;8.490;2023-06-04T00:57:06;7.90;;;7.60;;
14030;SDS011;7090;49.436;8.490;2023-06-04T00:59:34;7.90;;;7.60;;
14030;SDS011;7090;49.436;8.490;2023-06-04T01:02:02;8.60;;;8.30;;
14030;SDS011;7090;49.436;8.490;2023-06-04T01:04:33;8.00;;;7.70;;
14030;SDS011;7090;49.436;8.490;2023-06-04T01:07:05;7.97;;;7.68;;
14030;SDS011;7090;49.436;8.490;2023-06-04T01:09:34;7.80;;;7.50;;
14030;SDS011;7090;49.436;8.490;2023-06-04T01:12:03;7.80;;;7.50;;
14030;SDS011;7090;49.436;8.490;2023-06-04T01:14:30;7.70;;;7.40;;
14030;SDS011;7090;49.436;8.490;2023-06-04T01:17:19;8.00;;;7.70;;
14030;SDS011;7090;49.436;8.490;2023-06-04T01:28:04;7.93;;;7.63;;
14030;SDS011;7090;49.436;8.490;2023-06-04T01:30:32;7.68;;;7.38;;
14030;SDS011;7090;49.436;8.490;2023-06-04T01:33:08;7.57;;;7.27;;
14030;SDS011;7090;49.436;8.490;2023-06-04T01:35:38;7.80;;;7.50;;
14030;SDS011;7090;49.436;8.490;2023-06-04T01:38:04;7.80;;;7.50;;
14030;SDS011;7090;49.436;8.490;2023-06-04T01:40:30;7.90;;;7.60;;
14030;SDS011;7090;49.436;8.490;2023-06-04T01:42:56;8.17;;;7.87;;
14030;SDS011;7090;49.436;8.490;2023-06-04T01:45:22;7.90;;;7.60;;
14030;SDS011;7090;49.436;8.490;2023-06-04T01:47:47;8.47;;;8.17;;
14030;SDS011;7090;49.436;8.490;2023-06-04T01:50:13;8.43;;;8.13;;
14030;SDS011;7090;49.436;8.490;2023-06-04T01:52:39;7.90;;;7.60;;
14030;SDS011;7090;49.436;8.490;2023-06-04T01:55:06;8.10;;;7.80;;
14030;SDS011;7090;49.436;8.490;2023-06-04T01:57:34;7.90;;;7.60;;
14030;SDS011;7090;49.436;8.490;2023-06-04T02:00:06;8.07;;;7.77;;
14030;SDS011;7090;49.436;8.490;2023-06-04T02:02:35;8.40;;;8.10;;
14030;SDS011;7090;49.436;8.490;2023-06-04T02:05:02;8.20;;;7.90;;
14030;SDS011;7090;49.436;8.490;2023-06-04T02:07:40;8.00;;;7.70;;
14030;SDS011;7090;49.436;8.490;2023-06-04T02:10:10;7.90;;;7.60;;
14030;SDS011;7090;49.436;8.490;2023-06-04T02:12:37;7.40;;;7.10;;
14030;SDS011;7090;49.436;8.490;2023-06-04T02:15:04;7.80;;;7.50;;
14030;SDS011;7090;49.436;8.490;2023-06-04T02:17:31;7.30;;;7.00;;
14030;SDS011;7090;49.436;8.490;2023-06-04T02:19:57;7.63;;;7.33;;
14030;SDS011;7090;49.436;8.490;2023-06-04T02:22:24;7.63;;;7.33;;
14030;SDS011;7090;49.436;8.490;2023-06-04T02:24:50;7.60;;;7.30;;
14030;SDS011;7090;49.436;8.490;2023-06-04T02:27:16;7.70;;;7.40;;
14030;SDS011;7090;49.436;8.490;2023-06-04T02:29:42;7.93;;;7.63;;
14030;SDS011;7090;49.436;8.490;2023-06-04T02:32:08;7.90;;;7.60;;
14030;SDS011;7090;49.436;8.490;2023-06-04T02:34:34;7.93;;;7.63;;
14030;SDS011;7090;49.436;8.490;2023-06-04T02:37:00;7.90;;;7.60;;
14030;SDS011;7090;49.436;8.490;2023-06-04T02:39:26;7.70;;;7.40;;
14030;SDS011;7090;49.436;8.490;2023-06-04T02:41:51;7.80;;;7.50;;
14030;SDS011;7090;49.436;8.490;2023-06-04T02:44:17;7.90;;;7.60;;
14030;SDS011;7090;49.436;8.490;2023-06-04T02:46:43;8.00;;;7.70;;
14030;SDS011;7090;49.436;8.490;2023-06-04T02:49:09;7.80;;;7.50;;
14030;SDS011;7090;49.436;8.490;2023-06-04T02:51:38;8.10;;;7.80;;
14030;SDS011;7090;49.436;8.490;2023-06-04T02:54:08;8.10;;;7.80;;
14030;SDS011;7090;49.436;8.490;2023-06-04T02:56:34;7.80;;;7.50;;
14030;SDS011;7090;49.436;8.490;2023-06-04T02:59:01;8.03;;;7.73;;
14030;SDS011;7090;49.436;8.490;2023-06-04T03:01:27;8.20;;;7.90;;
14030;SDS011;7090;49.436;8.490;2023-06-04T03:03:53;8.23;;;7.93;;
14030;SDS011;7090;49.436;8.490;2023-06-04T03:06:20;8.40;;;8.10;;
14030;SDS011;7090;49.436;8.490;2023-06-04T03:08:47;8.40;;;8.10;;
14030;SDS011;7090;49.436;8.490;2023-06-04T03:11:14;8.30;;;8.00;;
14030;SDS011;7090;49.436;8.490;2023-06-04T03:13:39;8.10;;;7.80;;
14030;SDS011;7090;49.436;8.490;2023-06-04T03:16:05;8.10;;;7.80;;
14030;SDS011;7090;49.436;8.490;2023-06-04T03:18:34;8.40;;;8.10;;
14030;SDS011;7090;49.436;8.490;2023-06-04T03:21:01;8.10;;;7.80;;
14030;SDS011;7090;49.436;8.490;2023-06-04T03:23:27;7.80;;;7.50;;
14030;SDS011;7090;49.436;8.490;2023-06-04T03:25:53;8.23;;;7.93;;
14030;SDS011;7090;49.436;8.490;2023-06-04T03:28:18;8.00;;;7.70;;
14030;SDS011;7090;49.436;8.490;2023-06-04T03:30:44;8.17;;;7.87;;
14030;SDS011;7090;49.436;8.490;2023-06-04T03:33:09;9.37;;;9.00;;
14030;SDS011;7090;49.436;8.490;2023-06-04T03:35:35;8.80;;;8.50;;
14030;SDS011;7090;49.436;8.490;2023-06-04T03:38:01;8.83;;;8.53;;
14030;SDS011;7090;49.436;8.490;2023-06-04T03:40:27;8.50;;;8.20;;
14030;SDS011;7090;49.436;8.490;2023-06-04T03:42:52;8.93;;;8.63;;
14030;SDS011;7090;49.436;8.490;2023-06-04T03:45:18;8.90;;;8.60;;
14030;SDS011;7090;49.436;8.490;2023-06-04T03:47:43;8.80;;;8.50;;
14030;SDS011;7090;49.436;8.490;2023-06-04T03:50:09;8.63;;;8.33;;
14030;SDS011;7090;49.436;8.490;2023-06-04T03:52:35;9.30;;;8.90;;
14030;SDS011;7090;49.436;8.490;2023-06-04T03:55:00;9.27;;;8.87;;
14030;SDS011;7090;49.436;8.490;2023-06-04T03:57:26;9.17;;;8.77;;
14030;SDS011;7090;49.436;8.490;2023-06-04T03:59:52;8.20;;;7.90;;
14030;SDS011;7090;49.436;8.490;2023-06-04T04:02:17;8.67;;;8.37;;
14030;SDS011;7090;49.436;8.490;2023-06-04T04:04:43;8.80;;;8.50;;
14030;SDS011;7090;49.436;8.490;2023-06-04T04:07:09;9.00;;;8.70;;
14030;SDS011;7090;49.436;8.490;2023-06-04T04:09:35;9.47;;;9.07;;
14030;SDS011;7090;49.436;8.490;2023-06-04T04:12:01;8.60;;;8.30;;
14030;SDS011;7090;49.436;8.490;2023-06-04T04:14:27;9.43;;;9.03;;
14030;SDS011;7090;49.436;8.490;2023-06-04T04:16:53;8.20;;;7.90;;
14030;SDS011;7090;49.436;8.490;2023-06-04T04:19:18;9.60;;;9.20;;
14030;SDS011;7090;49.436;8.490;2023-06-04T04:21:45;9.00;;;8.70;;
14030;SDS011;7090;49.436;8.490;2023-06-04T04:24:21;9.00;;;8.70;;
14030;SDS011;7090;49.436;8.490;2023-06-04T04:26:51;8.60;;;8.30;;
14030;SDS011;7090;49.436;8.490;2023-06-04T04:29:19;9.00;;;8.70;;
14030;SDS011;7090;49.436;8.490;2023-06-04T04:31:47;8.77;;;8.47;;
14030;SDS011;7090;49.436;8.490;2023-06-04T04:34:14;9.10;;;8.70;;
14030;SDS011;7090;49.436;8.490;2023-06-04T04:36:40;8.73;;;8.43;;
14030;SDS011;7090;49.436;8.490;2023-06-04T04:39:05;8.75;;;8.45;;
14030;SDS011;7090;49.436;8.490;2023-06-04T04:41:32;9.10;;;8.70;;
14030;SDS011;7090;49.436;8.490;2023-06-04T04:44:02;8.97;;;8.57;;
14030;SDS011;7090;49.436;8.490;2023-06-04T04:46:32;8.35;;;8.05;;
14030;SDS011;7090;49.436;8.490;2023-06-04T04:48:57;9.18;;;8.77;;
14030;SDS011;7090;49.436;8.490;2023-06-04T04:51:23;9.13;;;8.73;;
14030;SDS011;7090;49.436;8.490;2023-06-04T04:53:48;9.20;;;8.80;;
14030;SDS011;7090;49.436;8.490;2023-06-04T04:56:14;9.00;;;8.70;;
14030;SDS011;7090;49.436;8.490;2023-06-04T04:58:40;9.70;;;9.30;;
14030;SDS011;7090;49.436;8.490;2023-06-04T05:01:05;8.07;;;7.78;;
14030;SDS011;7090;49.436;8.490;2023-06-04T05:03:31;9.10;;;8.70;;
14030;SDS011;7090;49.436;8.490;2023-06-04T05:05:56;9.77;;;9.32;;
14030;SDS011;7090;49.436;8.490;2023-06-04T05:08:22;9.30;;;8.90;;
14030;SDS011;7090;49.436;8.490;2023-06-04T05:10:48;9.23;;;8.85;;
14030;SDS011;7090;49.436;8.490;2023-06-04T05:13:15;9.15;;;8.77;;
14030;SDS011;7090;49.436;8.490;2023-06-04T05:15:42;9.38;;;8.98;;
14030;SDS011;7090;49.436;8.490;2023-06-04T05:18:08;9.30;;;8.90;;
14030;SDS011;7090;49.436;8.490;2023-06-04T05:20:33;9.63;;;9.10;;
14030;SDS011;7090;49.436;8.490;2023-06-04T05:23:02;8.90;;;8.60;;
14030;SDS011;7090;49.436;8.490;2023-06-04T05:25:29;9.32;;;8.93;;
14030;SDS011;7090;49.436;8.490;2023-06-04T05:27:56;9.10;;;8.70;;
14030;SDS011;7090;49.436;8.490;2023-06-04T05:30:21;9.27;;;8.88;;
14030;SDS011;7090;49.436;8.490;2023-06-04T05:32:47;9.60;;;9.20;;
14030;SDS011;7090;49.436;8.490;2023-06-04T05:35:15;9.50;;;9.10;;
14030;SDS011;7090;49.436;8.490;2023-06-04T05:37:42;9.38;;;8.98;;
14030;SDS011;7090;49.436;8.490;2023-06-04T05:40:11;9.65;;;9.25;;
14030;SDS011;7090;49.436;8.490;2023-06-04T05:42:37;9.30;;;8.90;;
14030;SDS011;7090;49.436;8.490;2023-06-04T05:45:03;9.05;;;8.75;;
14030;SDS011;7090;49.436;8.490;2023-06-04T05:47:29;9.95;;;9.45;;
14030;SDS011;7090;49.436;8.490;2023-06-04T05:49:55;9.20;;;8.80;;
14030;SDS011;7090;49.436;8.490;2023-06-04T05:52:21;9.68;;;9.27;;
14030;SDS011;7090;49.436;8.490;2023-06-04T05:54:46;9.50;;;9.10;;
14030;SDS011;7090;49.436;8.490;2023-06-04T05:57:12;9.60;;;9.20;;
14030;SDS011;7090;49.436;8.490;2023-06-04T05:59:37;10.52;;;9.77;;
14030;SDS011;7090;49.436;8.490;2023-06-04T06:02:03;9.68;;;9.27;;
14030;SDS011;7090;49.436;8.490;2023-06-04T06:04:29;9.35;;;8.95;;
14030;SDS011;7090;49.436;8.490;2023-06-04T06:06:54;9.90;;;9.50;;
14030;SDS011;7090;49.436;8.490;2023-06-04T06:09:21;9.48;;;9.07;;
14030;SDS011;7090;49.436;8.490;2023-06-04T06:11:46;9.27;;;8.88;;
14030;SDS011;7090;49.436;8.490;2023-06-04T06:14:12;9.80;;;9.40;;
14030;SDS011;7090;49.436;8.490;2023-06-04T06:16:37;9.30;;;8.90;;
14030;SDS011;7090;49.436;8.490;2023-06-04T06:19:03;10.07;;;9.57;;
14030;SDS011;7090;49.436;8.490;2023-06-04T06:21:29;9.55;;;9.15;;
14030;SDS011;7090;49.436;8.490;2023-06-04T06:23:54;9.48;;;9.07;;
14030;SDS011;7090;49.436;8.490;2023-06-04T06:26:20;9.63;;;9.15;;
14030;SDS011;7090;49.436;8.490;2023-06-04T06:28:47;9.00;;;8.70;;
14030;SDS011;7090;49.436;8.490;2023-06-04T06:31:12;9.00;;;8.70;;
14030;SDS011;7090;49.436;8.490;2023-06-04T06:33:38;9.35;;;9.00;;
14030;SDS011;7090;49.436;8.490;2023-06-04T06:36:06;9.32;;;8.93;;
14030;SDS011;7090;49.436;8.490;2023-06-04T06:38:32;9.18;;;8.77;;
14030;SDS011;7090;49.436;8.490;2023-06-04T06:40:58;8.80;;;8.50;;
14030;SDS011;7090;49.436;8.490;2023-06-04T06:43:24;9.25;;;8.85;;
14030;SDS011;7090;49.436;8.490;2023-06-04T06:45:49;9.40;;;9.00;;
14030;SDS011;7090;49.436;8.490;2023-06-04T06:48:15;9.27;;;8.88;;
14030;SDS011;7090;49.436;8.490;2023-06-04T06:50:41;9.63;;;9.23;;
14030;SDS011;7090;49.436;8.490;2023-06-04T06:53:07;9.00;;;8.60;;
14030;SDS011;7090;49.436;8.490;2023-06-04T06:55:32;9.10;;;8.70;;
14030;SDS011;7090;49.436;8.490;2023-06-04T06:57:58;9.30;;;8.90;;
14030;SDS011;7090;49.436;8.490;2023-06-04T07:00:25;9.10;;;8.70;;
14030;SDS011;7090;49.436;8.490;2023-06-04T07:02:52;8.98;;;8.68;;
14030;SDS011;7090;49.436;8.490;2023-06-04T07:05:18;9.52;;;9.13;;
14030;SDS011;7090;49.436;8.490;2023-06-04T07:07:44;9.45;;;9.05;;
14030;SDS011;7090;49.436;8.490;2023-06-04T07:10:11;9.40;;;8.90;;
14030;SDS011;7090;49.436;8.490;2023-06-04T07:12:37;8.85;;;8.55;;
14030;SDS011;7090;49.436;8.490;2023-06-04T07:15:04;8.73;;;8.43;;
14030;SDS011;7090;49.436;8.490;2023-06-04T07:17:31;8.70;;;8.40;;
14030;SDS011;7090;49.436;8.490;2023-06-04T07:19:56;9.05;;;8.70;;
14030;SDS011;7090;49.436;8.490;2023-06-04T07:22:22;8.63;;;8.32;;
14030;SDS011;7090;49.436;8.490;2023-06-04T07:24:47;8.75;;;8.35;;
14030;SDS011;7090;49.436;8.490;2023-06-04T07:27:13;8.80;;;8.50;;
14030;SDS011;7090;49.436;8.490;2023-06-04T07:29:39;8.90;;;8.60;;
14030;SDS011;7090;49.436;8.490;2023-06-04T07:32:05;10.02;;;8.65;;
14030;SDS011;7090;49.436;8.490;2023-06-04T07:34:31;9.20;;;8.80;;
14030;SDS011;7090;49.436;8.490;2023-06-04T07:36:57;9.30;;;8.90;;
14030;SDS011;7090;49.436;8.490;2023-06-04T07:39:23;9.40;;;9.00;;
14030;SDS011;7090;49.436;8.490;2023-06-04T07:41:48;9.30;;;8.90;;
14030;SDS011;7090;49.436;8.490;2023-06-04T07:44:14;9.30;;;8.90;;
14030;SDS011;7090;49.436;8.490;2023-06-04T07:46:40;9.55;;;9.15;;
14030;SDS011;7090;49.436;8.490;2023-06-04T07:49:06;8.90;;;8.50;;
14030;SDS011;7090;49.436;8.490;2023-06-04T07:51:31;9.10;;;8.70;;
14030;SDS011;7090;49.436;8.490;2023-06-04T07:53:57;9.18;;;8.77;;
14030;SDS011;7090;49.436;8.490;2023-06-04T07:56:23;9.20;;;8.80;;
14030;SDS011;7090;49.436;8.490;2023-06-04T07:58:48;9.25;;;8.85;;
14030;SDS011;7090;49.436;8.490;2023-06-04T08:01:14;9.50;;;9.10;;
14030;SDS011;7090;49.436;8.490;2023-06-04T08:03:40;9.20;;;8.80;;
14030;SDS011;7090;49.436;8.490;2023-06-04T08:06:06;9.30;;;8.90;;
14030;SDS011;7090;49.436;8.490;2023-06-04T08:08:32;9.27;;;8.88;;
14030;SDS011;7090;49.436;8.490;2023-06-04T08:10:59;9.27;;;8.88;;
14030;SDS011;7090;49.436;8.490;2023-06-04T08:13:24;10.30;;;9.80;;
14030;SDS011;7090;49.436;8.490;2023-06-04T08:15:51;9.80;;;9.40;;
14030;SDS011;7090;49.436;8.490;2023-06-04T08:18:16;8.88;;;8.50;;
14030;SDS011;7090;49.436;8.490;2023-06-04T08:20:42;8.88;;;8.48;;
14030;SDS011;7090;49.436;8.490;2023-06-04T08:23:07;9.13;;;8.73;;
14030;SDS011;7090;49.436;8.490;2023-06-04T08:25:33;9.20;;;8.80;;
14030;SDS011;7090;49.436;8.490;2023-06-04T08:27:59;8.80;;;8.40;;
14030;SDS011;7090;49.436;8.490;2023-06-04T08:30:25;8.77;;;8.38;;
14030;SDS011;7090;49.436;8.490;2023-06-04T08:32:52;9.07;;;8.68;;
14030;SDS011;7090;49.436;8.490;2023-06-04T08:35:18;8.88;;;8.48;;
14030;SDS011;7090;49.436;8.490;2023-06-04T08:37:43;8.68;;;8.30;;
14030;SDS011;7090;49.436;8.490;2023-06-04T08:40:09;8.50;;;8.20;;
14030;SDS011;7090;49.436;8.490;2023-06-04T08:42:40;9.35;;;8.95;;
14030;SDS011;7090;49.436;8.490;2023-06-04T08:45:11;9.00;;;8.60;;
14030;SDS011;7090;49.436;8.490;2023-06-04T08:47:40;8.90;;;8.50;;
14030;SDS011;7090;49.436;8.490;2023-06-04T08:50:10;8.82;;;8.43;;
14030;SDS011;7090;49.436;8.490;2023-06-04T08:52:37;9.05;;;8.65;;
14030;SDS011;7090;49.436;8.490;2023-06-04T08:55:03;8.60;;;8.20;;
14030;SDS011;7090;49.436;8.490;2023-06-04T08:57:30;8.80;;;8.40;;
14030;SDS011;7090;49.436;8.490;2023-06-04T08:59:56;8.90;;;8.50;;
14030;SDS011;7090;49.436;8.490;2023-06-04T09:02:21;9.20;;;8.80;;
14030;SDS011;7090;49.436;8.490;2023-06-04T09:04:48;8.77;;;8.38;;
14030;SDS011;7090;49.436;8.490;2023-06-04T09:07:14;8.60;;;8.20;;
14030;SDS011;7090;49.436;8.490;2023-06-04T09:09:42;8.80;;;8.40;;
14030;SDS011;7090;49.436;8.490;2023-06-04T09:12:11;9.10;;;8.60;;
14030;SDS011;7090;49.436;8.490;2023-06-04T09:14:44;8.90;;;8.50;;
14030;SDS011;7090;49.436;8.490;2023-06-04T09:17:10;8.57;;;8.25;;
14030;SDS011;7090;49.436;8.490;2023-06-04T09:19:36;9.20;;;8.70;;
14030;SDS011;7090;49.436;8.490;2023-06-04T09:22:01;9.00;;;8.60;;
14030;SDS011;7090;49.436;8.490;2023-06-04T09:27:12;8.80;;;8.40;;
14030;SDS011;7090;49.436;8.490;2023-06-04T09:29:39;9.10;;;8.70;;
14030;SDS011;7090;49.436;8.490;2023-06-04T09:32:05;8.93;;;8.52;;
14030;SDS011;7090;49.436;8.490;2023-06-04T09:34:31;9.45;;;8.95;;
14030;SDS011;7090;49.436;8.490;2023-06-04T09:36:57;8.90;;;8.50;;
14030;SDS011;7090;49.436;8.490;2023-06-04T09:39:23;9.13;;;8.73;;
14030;SDS011;7090;49.436;8.490;2023-06-04T09:41:59;9.77;;;9.27;;
14030;SDS011;7090;49.436;8.490;2023-06-04T09:44:26;9.88;;;9.38;;
14030;SDS011;7090;49.436;8.490;2023-06-04T09:46:58;9.10;;;8.70;;
14030;SDS011;7090;49.436;8.490;2023-06-04T09:49:23;8.85;;;8.45;;
14030;SDS011;7090;49.436;8.490;2023-06-04T09:51:49;8.38;;;8.05;;
14030;SDS011;7090;49.436;8.490;2023-06-04T09:54:16;8.80;;;8.40;;
14030;SDS011;7090;49.436;8.490;2023-06-04T09:56:42;8.80;;;8.40;;
14030;SDS011;7090;49.436;8.490;2023-06-04T09:59:10;8.80;;;8.40;;
14030;SDS011;7090;49.436;8.490;2023-06-04T10:01:39;8.80;;;8.40;;
14030;SDS011;7090;49.436;8.490;2023-06-04T10:04:09;8.60;;;8.20;;
14030;SDS011;7090;49.436;8.490;2023-06-04T10:06:36;8.70;;;8.30;;
14030;SDS011;7090;49.436;8.490;2023-06-04T10:09:07;8.63;;;8.23;;
14030;SDS011;7090;49.436;8.490;2023-06-04T10:11:34;8.55;;;8.25;;
14030;SDS011;7090;49.436;8.490;2023-06-04T10:16:48;8.13;;;7.82;;
14030;SDS011;7090;49.436;8.490;2023-06-04T10:19:16;8.77;;;8.38;;
14030;SDS011;7090;49.436;8.490;2023-06-04T10:21:43;9.50;;;9.00;;
14030;SDS011;7090;49.436;8.490;2023-06-04T10:24:08;8.88;;;8.48;;
14030;SDS011;7090;49.436;8.490;2023-06-04T10:26:35;8.88;;;8.48;;
14030;SDS011;7090;49.436;8.490;2023-06-04T10:29:02;10.02;;;9.43;;
14030;SDS011;7090;49.436;8.490;2023-06-04T10:31:30;9.00;;;8.60;;
14030;SDS011;7090;49.436;8.490;2023-06-04T10:33:57;9.68;;;9.27;;
14030;SDS011;7090;49.436;8.490;2023-06-04T10:36:24;9.02;;;8.63;;
14030;SDS011;7090;49.436;8.490;2023-06-04T10:38:51;8.70;;;8.30;;
14030;SDS011;7090;49.436;8.490;2023-06-04T10:41:18;9.40;;;8.90;;
14030;SDS011;7090;49.436;8.490;2023-06-04T10:43:46;9.15;;;8.75;;
14030;SDS011;7090;49.436;8.490;2023-06-04T10:46:15;8.80;;;8.40;;
14030;SDS011;7090;49.436;8.490;2023-06-04T10:48:51;8.70;;;8.30;;
14030;SDS011;7090;49.436;8.490;2023-06-04T10:51:30;9.07;;;8.68;;
14030;SDS011;7090;49.436;8.490;2023-06-04T10:53:57;9.02;;;8.63;;
14030;SDS011;7090;49.436;8.490;2023-06-04T10:56:25;9.27;;;8.85;;
14030;SDS011;7090;49.436;8.490;2023-06-04T10:58:51;9.30;;;8.90;;
14030;SDS011;7090;49.436;8.490;2023-06-04T11:01:23;8.73;;;8.32;;
14030;SDS011;7090;49.436;8.490;2023-06-04T11:03:50;9.00;;;8.60;;
14030;SDS011;7090;49.436;8.490;2023-06-04T11:06:16;8.63;;;8.23;;
14030;SDS011;7090;49.436;8.490;2023-06-04T11:08:42;8.65;;;8.25;;
14030;SDS011;7090;49.436;8.490;2023-06-04T11:11:11;8.70;;;8.30;;
14030;SDS011;7090;49.436;8.490;2023-06-04T11:13:41;8.45;;;8.07;;
14030;SDS011;7090;49.436;8.490;2023-06-04T11:16:14;9.18;;;8.68;;
14030;SDS011;7090;49.436;8.490;2023-06-04T11:18:43;9.98;;;9.48;;
14030;SDS011;7090;49.436;8.490;2023-06-04T11:21:22;8.80;;;8.40;;
14030;SDS011;7090;49.436;8.490;2023-06-04T11:23:48;8.65;;;8.25;;
14030;SDS011;7090;49.436;8.490;2023-06-04T11:26:20;8.43;;;8.02;;
14030;SDS011;7090;49.436;8.490;2023-06-04T11:28:48;8.80;;;8.40;;
14030;SDS011;7090;49.436;8.490;2023-06-04T11:31:14;8.90;;;8.50;;
14030;SDS011;7090;49.436;8.490;2023-06-04T11:33:46;10.07;;;9.68;;
14030;SDS011;7090;49.436;8.490;2023-06-04T11:36:25;9.18;;;8.77;;
14030;SDS011;7090;49.436;8.490;2023-06-04T11:39:02;8.82;;;8.43;;
14030;SDS011;7090;49.436;8.490;2023-06-04T11:41:31;9.40;;;9.00;;
14030;SDS011;7090;49.436;8.490;2023-06-04T11:44:04;9.50;;;9.00;;
14030;SDS011;7090;49.436;8.490;2023-06-04T11:46:43;10.45;;;9.75;;
14030;SDS011;7090;49.436;8.490;2023-06-04T11:49:14;9.20;;;8.80;;
14030;SDS011;7090;49.436;8.490;2023-06-04T11:51:51;8.73;;;8.32;;
14030;SDS011;7090;49.436;8.490;2023-06-04T11:54:18;9.20;;;8.80;;
14030;SDS011;7090;49.436;8.490;2023-06-04T11:56:45;9.43;;;9.00;;
14030;SDS011;7090;49.436;8.490;2023-06-04T11:59:13;12.73;;;9.45;;
14030;SDS011;7090;49.436;8.490;2023-06-04T12:01:44;9.20;;;8.80;;
14030;SDS011;7090;49.436;8.490;2023-06-04T12:04:11;8.85;;;8.45;;
14030;SDS011;7090;49.436;8.490;2023-06-04T12:06:53;9.13;;;8.73;;
14030;SDS011;7090;49.436;8.490;2023-06-04T12:09:24;9.20;;;8.80;;
14030;SDS011;7090;49.436;8.490;2023-06-04T12:11:57;8.93;;;8.52;;
14030;SDS011;7090;49.436;8.490;2023-06-04T12:14:24;9.43;;;9.02;;
14030;SDS011;7090;49.436;8.490;2023-06-04T12:19:45;9.50;;;9.10;;
14030;SDS011;7090;49.436;8.490;2023-06-04T12:22:15;9.65;;;9.25;;
14030;SDS011;7090;49.436;8.490;2023-06-04T12:24:50;9.00;;;8.60;;
14030;SDS011;7090;49.436;8.490;2023-06-04T12:27:21;9.48;;;9.07;;
14030;SDS011;7090;49.436;8.490;2023-06-04T12:29:54;9.60;;;9.10;;
14030;SDS011;7090;49.436;8.490;2023-06-04T12:32:20;9.40;;;9.00;;
14030;SDS011;7090;49.436;8.490;2023-06-04T12:34:46;9.20;;;8.80;;
14030;SDS011;7090;49.436;8.490;2023-06-04T12:37:13;8.77;;;8.38;;
14030;SDS011;7090;49.436;8.490;2023-06-04T12:39:39;9.00;;;8.60;;
14030;SDS011;7090;49.436;8.490;2023-06-04T12:42:05;9.07;;;8.68;;
14030;SDS011;7090;49.436;8.490;2023-06-04T12:44:32;8.90;;;8.50;;
14030;SDS011;7090;49.436;8.490;2023-06-04T12:46:58;9.20;;;8.80;;
14030;SDS011;7090;49.436;8.490;2023-06-04T12:49:23;9.23;;;8.82;;
14030;SDS011;7090;49.436;8.490;2023-06-04T12:51:49;9.35;;;8.95;;
14030;SDS011;7090;49.436;8.490;2023-06-04T12:54:14;9.13;;;8.73;;
14030;SDS011;7090;49.436;8.490;2023-06-04T12:56:40;9.23;;;8.82;;
14030;SDS011;7090;49.436;8.490;2023-06-04T12:59:06;9.32;;;8.77;;
14030;SDS011;7090;49.436;8.490;2023-06-04T13:01:32;9.27;;;8.88;;
14030;SDS011;7090;49.436;8.490;2023-06-04T13:03:58;9.25;;;8.85;;
14030;SDS011;7090;49.436;8.490;2023-06-04T13:06:23;9.00;;;8.60;;
14030;SDS011;7090;49.436;8.490;2023-06-04T13:08:49;9.05;;;8.65;;
14030;SDS011;7090;49.436;8.490;2023-06-04T13:11:14;9.35;;;8.95;;
14030;SDS011;7090;49.436;8.490;2023-06-04T13:13:40;8.32;;;8.02;;
14030;SDS011;7090;49.436;8.490;2023-06-04T13:16:07;9.40;;;9.00;;
14030;SDS011;7090;49.436;8.490;2023-06-04T13:18:32;9.52;;;9.13;;
14030;SDS011;7090;49.436;8.490;2023-06-04T13:20:58;9.80;;;9.30;;
14030;SDS011;7090;49.436;8.490;2023-06-04T13:23:23;9.35;;;8.95;;
14030;SDS011;7090;49.436;8.490;2023-06-04T13:25:49;9.18;;;8.77;;
14030;SDS011;7090;49.436;8.490;2023-06-04T13:28:15;9.93;;;9.43;;
14030;SDS011;7090;49.436;8.490;2023-06-04T13:30:42;9.50;;;9.10;;
14030;SDS011;7090;49.436;8.490;2023-06-04T13:33:08;10.05;;;9.45;;
14030;SDS011;7090;49.436;8.490;2023-06-04T13:35:33;9.52;;;9.13;;
14030;SDS011;7090;49.436;8.490;2023-06-04T13:37:59;9.40;;;9.00;;
14030;SDS011;7090;49.436;8.490;2023-06-04T13:40:27;9.70;;;9.30;;
14030;SDS011;7090;49.436;8.490;2023-06-04T13:42:53;9.82;;;9.43;;
14030;SDS011;7090;49.436;8.490;2023-06-04T13:45:18;9.50;;;9.10;;
14030;SDS011;7090;49.436;8.490;2023-06-04T13:47:46;9.50;;;9.10;;
14030;SDS011;7090;49.436;8.490;2023-06-04T13:50:14;9.45;;;9.05;;
14030;SDS011;7090;49.436;8.490;2023-06-04T13:52:40;9.57;;;9.18;;
14030;SDS011;7090;49.436;8.490;2023-06-04T13:55:06;9.13;;;8.73;;
14030;SDS011;7090;49.436;8.490;2023-06-04T13:57:32;9.73;;;9.30;;
14030;SDS011;7090;49.436;8.490;2023-06-04T13:59:57;9.52;;;9.13;;
14030;SDS011;7090;49.436;8.490;2023-06-04T14:02:23;10.18;;;9.68;;
14030;SDS011;7090;49.436;8.490;2023-06-04T14:04:49;9.80;;;9.40;;
14030;SDS011;7090;49.436;8.490;2023-06-04T14:07:16;9.20;;;8.80;;
14030;SDS011;7090;49.436;8.490;2023-06-04T14:09:42;9.38;;;8.98;;
14030;SDS011;7090;49.436;8.490;2023-06-04T14:12:07;9.65;;;9.25;;
14030;SDS011;7090;49.436;8.490;2023-06-04T14:14:34;9.40;;;9.00;;
14030;SDS011;7090;49.436;8.490;2023-06-04T14:17:05;9.52;;;9.13;;
14030;SDS011;7090;49.436;8.490;2023-06-04T14:19:34;9.90;;;9.45;;
14030;SDS011;7090;49.436;8.490;2023-06-04T14:22:00;9.50;;;9.10;;
14030;SDS011;7090;49.436;8.490;2023-06-04T14:24:27;11.15;;;10.65;;
14030;SDS011;7090;49.436;8.490;2023-06-04T14:26:52;10.38;;;9.80;;
14030;SDS011;7090;49.436;8.490;2023-06-04T14:29:18;9.52;;;9.13;;
14030;SDS011;7090;49.436;8.490;2023-06-04T14:31:43;10.05;;;9.55;;
14030;SDS011;7090;49.436;8.490;2023-06-04T14:34:10;9.60;;;9.20;;
14030;SDS011;7090;49.436;8.490;2023-06-04T14:36:36;9.20;;;8.80;;
14030;SDS011;7090;49.436;8.490;2023-06-04T14:39:01;9.68;;;9.27;;
14030;SDS011;7090;49.436;8.490;2023-06-04T14:41:27;10.00;;;9.50;;
14030;SDS011;7090;49.436;8.490;2023-06-04T14:43:53;9.50;;;9.10;;
14030;SDS011;7090;49.436;8.490;2023-06-04T14:46:18;9.73;;;9.32;;
14030;SDS011;7090;49.436;8.490;2023-06-04T14:48:44;9.18;;;8.77;;
14030;SDS011;7090;49.436;8.490;2023-06-04T14:51:10;9.40;;;9.00;;
14030;SDS011;7090;49.436;8.490;2023-06-04T14:53:35;9.38;;;8.88;;
14030;SDS011;7090;49.436;8.490;2023-06-04T14:56:04;9.15;;;8.75;;
14030;SDS011;7090;49.436;8.490;2023-06-04T14:58:30;9.73;;;9.25;;
14030;SDS011;7090;49.436;8.490;2023-06-04T15:00:56;9.52;;;8.93;;
14030;SDS011;7090;49.436;8.490;2023-06-04T15:03:24;9.52;;;9.13;;
14030;SDS011;7090;49.436;8.490;2023-06-04T15:05:50;9.32;;;8.93;;
14030;SDS011;7090;49.436;8.490;2023-06-04T15:08:16;9.30;;;8.90;;
14030;SDS011;7090;49.436;8.490;2023-06-04T15:10:42;9.32;;;8.93;;
14030;SDS011;7090;49.436;8.490;2023-06-04T15:13:07;9.73;;;9.32;;
14030;SDS011;7090;49.436;8.490;2023-06-04T15:15:33;8.57;;;8.27;;